sensor_id;sensor_type;location;lat;lon;timestamp;P1;durP1;ratioP1;P2;durP2;ratioP2
54865;SDS011;40754;52.094;4.328;2023-03-05T00:01:06;9.55;;;1.40;;
54865;SDS011;40754;52.094;4.328;2023-03-05T00:03:32;4.82;;;1.40;;
54865;SDS011;40754;52.094;4.328;2023-03-05T00:05:58;8.52;;;1.50;;
54865;SDS011;40754;52.094;4.328;2023-03-05T00:08:23;4.85;;;1.27;;
54865;SDS011;40754;52.094;4.328;2023-03-05T00:10:56;5.07;;;1.38;;
54865;SDS011;40754;52.094;4.328;2023-03-05T00:13:22;6.72;;;1.20;;
54865;SDS011;40754;52.094;4.328;2023-03-05T00:15:47;8.18;;;1.73;;
54865;SDS011;40754;52.094;4.328;2023-03-05T00:18:13;10.02;;;1.77;;
54865;SDS011;40754;52.094;4.328;2023-03-05T00:20:38;7.18;;;1.52;;
54865;SDS011;40754;52.094;4.328;2023-03-05T00:23:04;9.02;;;1.80;;
54865;SDS011;40754;52.094;4.328;2023-03-05T00:25:29;10.60;;;1.92;;
54865;SDS011;40754;52.094;4.328;2023-03-05T00:27:55;9.50;;;1.70;;
54865;SDS011;40754;52.094;4.328;2023-03-05T00:30:20;15.20;;;2.35;;
54865;SDS011;40754;52.094;4.328;2023-03-05T00:32:46;8.32;;;2.17;;
54865;SDS011;40754;52.094;4.328;2023-03-05T00:35:12;9.43;;;1.52;;
54865;SDS011;40754;52.094;4.328;2023-03-05T00:37:38;7.85;;;2.03;;
54865;SDS011;40754;52.094;4.328;2023-03-05T00:40:03;6.65;;;1.65;;
54865;SDS011;40754;52.094;4.328;2023-03-05T00:42:29;5.45;;;1.50;;
54865;SDS011;40754;52.094;4.328;2023-03-05T00:44:55;9.02;;;1.70;;
54865;SDS011;40754;52.094;4.328;2023-03-05T00:47:21;7.65;;;1.60;;
54865;SDS011;40754;52.094;4.328;2023-03-05T00:49:46;7.40;;;1.90;;
54865;SDS011;40754;52.094;4.328;2023-03-05T00:52:12;12.68;;;2.13;;
54865;SDS011;40754;52.094;4.328;2023-03-05T00:54:37;12.63;;;2.03;;
54865;SDS011;40754;52.094;4.328;2023-03-05T00:57:03;8.00;;;1.30;;
54865;SDS011;40754;52.094;4.328;2023-03-05T00:59:29;5.75;;;1.70;;
54865;SDS011;40754;52.094;4.328;2023-03-05T01:01:55;5.72;;;1.38;;
54865;SDS011;40754;52.094;4.328;2023-03-05T01:04:21;6.50;;;1.75;;
54865;SDS011;40754;52.094;4.328;2023-03-05T01:06:46;9.68;;;2.20;;
54865;SDS011;40754;52.094;4.328;2023-03-05T01:09:12;11.05;;;1.60;;
54865;SDS011;40754;52.094;4.328;2023-03-05T01:11:38;8.50;;;2.13;;
54865;SDS011;40754;52.094;4.328;2023-03-05T01:14:04;8.77;;;1.77;;
54865;SDS011;40754;52.094;4.328;2023-03-05T01:16:29;12.98;;;1.50;;
54865;SDS011;40754;52.094;4.328;2023-03-05T01:18:55;8.50;;;1.52;;
54865;SDS011;40754;52.094;4.328;2023-03-05T01:21:20;9.10;;;1.52;;
54865;SDS011;40754;52.094;4.328;2023-03-05T01:23:46;11.32;;;1.75;;
54865;SDS011;40754;52.094;4.328;2023-03-05T01:26:12;10.70;;;1.85;;
54865;SDS011;40754;52.094;4.328;2023-03-05T01:28:37;9.77;;;1.73;;
54865;SDS011;40754;52.094;4.328;2023-03-05T01:31:07;5.10;;;1.50;;
54865;SDS011;40754;52.094;4.328;2023-03-05T01:33:33;6.22;;;1.70;;
54865;SDS011;40754;52.094;4.328;2023-03-05T01:35:59;12.02;;;1.70;;
54865;SDS011;40754;52.094;4.328;2023-03-05T01:38:24;9.43;;;1.75;;
54865;SDS011;40754;52.094;4.328;2023-03-05T01:40:50;6.70;;;1.20;;
54865;SDS011;40754;52.094;4.328;2023-03-05T01:43:23;9.57;;;1.42;;
54865;SDS011;40754;52.094;4.328;2023-03-05T01:48:41;5.88;;;1.13;;
54865;SDS011;40754;52.094;4.328;2023-03-05T01:51:08;7.95;;;1.15;;
54865;SDS011;40754;52.094;4.328;2023-03-05T01:53:34;6.95;;;1.42;;
54865;SDS011;40754;52.094;4.328;2023-03-05T01:56:00;8.38;;;1.60;;
54865;SDS011;40754;52.094;4.328;2023-03-05T01:58:26;7.82;;;1.63;;
54865;SDS011;40754;52.094;4.328;2023-03-05T02:00:52;4.22;;;1.67;;
54865;SDS011;40754;52.094;4.328;2023-03-05T02:03:18;7.07;;;1.27;;
54865;SDS011;40754;52.094;4.328;2023-03-05T02:05:44;10.60;;;1.27;;
54865;SDS011;40754;52.094;4.328;2023-03-05T02:08:11;8.18;;;1.75;;
54865;SDS011;40754;52.094;4.328;2023-03-05T02:10:45;8.30;;;1.45;;
54865;SDS011;40754;52.094;4.328;2023-03-05T02:13:17;5.70;;;1.33;;
54865;SDS011;40754;52.094;4.328;2023-03-05T02:15:53;10.95;;;1.63;;
54865;SDS011;40754;52.094;4.328;2023-03-05T02:18:20;7.00;;;1.20;;
54865;SDS011;40754;52.094;4.328;2023-03-05T02:20:50;9.38;;;2.05;;
54865;SDS011;40754;52.094;4.328;2023-03-05T02:23:26;7.63;;;1.58;;
54865;SDS011;40754;52.094;4.328;2023-03-05T02:25:53;8.32;;;1.45;;
54865;SDS011;40754;52.094;4.328;2023-03-05T02:31:15;6.25;;;1.88;;
54865;SDS011;40754;52.094;4.328;2023-03-05T02:36:10;10.75;;;1.58;;
54865;SDS011;40754;52.094;4.328;2023-03-05T02:38:37;5.95;;;1.30;;
54865;SDS011;40754;52.094;4.328;2023-03-05T02:41:03;8.40;;;1.98;;
54865;SDS011;40754;52.094;4.328;2023-03-05T02:43:29;6.80;;;1.40;;
54865;SDS011;40754;52.094;4.328;2023-03-05T02:45:54;7.68;;;1.88;;
54865;SDS011;40754;52.094;4.328;2023-03-05T02:48:20;6.20;;;1.50;;
54865;SDS011;40754;52.094;4.328;2023-03-05T02:50:46;6.78;;;1.90;;
54865;SDS011;40754;52.094;4.328;2023-03-05T02:53:12;6.10;;;1.95;;
54865;SDS011;40754;52.094;4.328;2023-03-05T02:55:37;6.43;;;1.50;;
54865;SDS011;40754;52.094;4.328;2023-03-05T02:58:03;6.20;;;1.52;;
54865;SDS011;40754;52.094;4.328;2023-03-05T03:00:29;9.05;;;1.50;;
54865;SDS011;40754;52.094;4.328;2023-03-05T03:02:57;11.40;;;1.80;;
54865;SDS011;40754;52.094;4.328;2023-03-05T03:05:22;8.77;;;1.50;;
54865;SDS011;40754;52.094;4.328;2023-03-05T03:07:48;3.58;;;1.45;;
54865;SDS011;40754;52.094;4.328;2023-03-05T03:10:14;6.60;;;1.00;;
54865;SDS011;40754;52.094;4.328;2023-03-05T03:12:40;2.67;;;1.02;;
54865;SDS011;40754;52.094;4.328;2023-03-05T03:15:08;4.78;;;1.20;;
54865;SDS011;40754;52.094;4.328;2023-03-05T03:17:34;4.80;;;0.85;;
54865;SDS011;40754;52.094;4.328;2023-03-05T03:20:01;3.53;;;0.60;;
54865;SDS011;40754;52.094;4.328;2023-03-05T03:22:28;2.53;;;0.55;;
54865;SDS011;40754;52.094;4.328;2023-03-05T03:24:54;3.97;;;0.70;;
54865;SDS011;40754;52.094;4.328;2023-03-05T03:27:20;1.10;;;0.50;;
54865;SDS011;40754;52.094;4.328;2023-03-05T03:29:46;2.60;;;0.55;;
54865;SDS011;40754;52.094;4.328;2023-03-05T03:32:12;4.95;;;0.90;;
54865;SDS011;40754;52.094;4.328;2023-03-05T03:34:38;6.90;;;1.02;;
54865;SDS011;40754;52.094;4.328;2023-03-05T03:37:03;2.45;;;1.05;;
54865;SDS011;40754;52.094;4.328;2023-03-05T03:39:29;5.47;;;1.20;;
54865;SDS011;40754;52.094;4.328;2023-03-05T03:41:54;5.38;;;0.88;;
54865;SDS011;40754;52.094;4.328;2023-03-05T03:44:20;5.53;;;0.77;;
54865;SDS011;40754;52.094;4.328;2023-03-05T03:46:47;7.65;;;1.42;;
54865;SDS011;40754;52.094;4.328;2023-03-05T03:49:15;8.73;;;1.00;;
54865;SDS011;40754;52.094;4.328;2023-03-05T03:51:40;4.53;;;1.48;;
54865;SDS011;40754;52.094;4.328;2023-03-05T03:54:09;4.65;;;1.60;;
54865;SDS011;40754;52.094;4.328;2023-03-05T03:56:35;7.15;;;1.48;;
54865;SDS011;40754;52.094;4.328;2023-03-05T03:59:00;8.32;;;1.33;;
54865;SDS011;40754;52.094;4.328;2023-03-05T04:01:26;5.53;;;1.00;;
54865;SDS011;40754;52.094;4.328;2023-03-05T04:03:51;4.70;;;0.93;;
54865;SDS011;40754;52.094;4.328;2023-03-05T04:06:17;10.07;;;1.08;;
54865;SDS011;40754;52.094;4.328;2023-03-05T04:08:42;11.30;;;1.10;;
54865;SDS011;40754;52.094;4.328;2023-03-05T04:11:08;3.45;;;0.90;;
54865;SDS011;40754;52.094;4.328;2023-03-05T04:13:34;4.35;;;1.27;;
54865;SDS011;40754;52.094;4.328;2023-03-05T04:15:59;6.85;;;1.10;;
54865;SDS011;40754;52.094;4.328;2023-03-05T04:18:28;8.32;;;0.80;;
54865;SDS011;40754;52.094;4.328;2023-03-05T04:20:53;9.00;;;1.13;;
54865;SDS011;40754;52.094;4.328;2023-03-05T04:23:19;7.10;;;1.00;;
54865;SDS011;40754;52.094;4.328;2023-03-05T04:25:44;5.72;;;1.23;;
54865;SDS011;40754;52.094;4.328;2023-03-05T04:28:10;6.57;;;1.50;;
54865;SDS011;40754;52.094;4.328;2023-03-05T04:30:36;4.35;;;1.02;;
54865;SDS011;40754;52.094;4.328;2023-03-05T04:33:02;3.17;;;0.73;;
54865;SDS011;40754;52.094;4.328;2023-03-05T04:35:30;5.13;;;1.30;;
54865;SDS011;40754;52.094;4.328;2023-03-05T04:37:56;7.10;;;1.00;;
54865;SDS011;40754;52.094;4.328;2023-03-05T04:40:21;9.95;;;1.38;;
54865;SDS011;40754;52.094;4.328;2023-03-05T04:42:47;7.13;;;1.45;;
54865;SDS011;40754;52.094;4.328;2023-03-05T04:45:13;7.80;;;1.20;;
54865;SDS011;40754;52.094;4.328;2023-03-05T04:47:41;11.75;;;1.70;;
54865;SDS011;40754;52.094;4.328;2023-03-05T04:50:07;3.63;;;0.70;;
54865;SDS011;40754;52.094;4.328;2023-03-05T04:52:34;6.85;;;1.48;;
54865;SDS011;40754;52.094;4.328;2023-03-05T04:55:05;9.93;;;1.27;;
54865;SDS011;40754;52.094;4.328;2023-03-05T04:57:31;4.28;;;0.70;;
54865;SDS011;40754;52.094;4.328;2023-03-05T04:59:56;5.47;;;0.77;;
54865;SDS011;40754;52.094;4.328;2023-03-05T05:02:22;8.30;;;1.10;;
54865;SDS011;40754;52.094;4.328;2023-03-05T05:04:50;6.35;;;1.02;;
54865;SDS011;40754;52.094;4.328;2023-03-05T05:07:16;7.85;;;1.10;;
54865;SDS011;40754;52.094;4.328;2023-03-05T05:09:42;9.20;;;1.38;;
54865;SDS011;40754;52.094;4.328;2023-03-05T05:12:08;8.30;;;1.27;;
54865;SDS011;40754;52.094;4.328;2023-03-05T05:14:34;10.05;;;1.02;;
54865;SDS011;40754;52.094;4.328;2023-03-05T05:17:00;6.55;;;0.90;;
54865;SDS011;40754;52.094;4.328;2023-03-05T05:19:29;6.38;;;1.15;;
54865;SDS011;40754;52.094;4.328;2023-03-05T05:21:55;9.73;;;1.27;;
54865;SDS011;40754;52.094;4.328;2023-03-05T05:24:21;8.43;;;1.40;;
54865;SDS011;40754;52.094;4.328;2023-03-05T05:26:47;7.15;;;1.35;;
54865;SDS011;40754;52.094;4.328;2023-03-05T05:29:12;5.45;;;1.58;;
54865;SDS011;40754;52.094;4.328;2023-03-05T05:31:38;7.72;;;1.02;;
54865;SDS011;40754;52.094;4.328;2023-03-05T05:34:03;5.95;;;0.80;;
54865;SDS011;40754;52.094;4.328;2023-03-05T05:36:29;6.47;;;1.20;;
54865;SDS011;40754;52.094;4.328;2023-03-05T05:38:55;7.10;;;1.00;;
54865;SDS011;40754;52.094;4.328;2023-03-05T05:41:20;4.10;;;1.58;;
54865;SDS011;40754;52.094;4.328;2023-03-05T05:43:46;2.88;;;0.65;;
54865;SDS011;40754;52.094;4.328;2023-03-05T05:46:13;2.92;;;0.95;;
54865;SDS011;40754;52.094;4.328;2023-03-05T05:48:40;2.92;;;0.52;;
54865;SDS011;40754;52.094;4.328;2023-03-05T05:51:11;7.25;;;1.25;;
54865;SDS011;40754;52.094;4.328;2023-03-05T05:53:39;4.93;;;0.95;;
54865;SDS011;40754;52.094;4.328;2023-03-05T05:56:06;5.40;;;0.80;;
54865;SDS011;40754;52.094;4.328;2023-03-05T05:58:33;3.88;;;0.80;;
54865;SDS011;40754;52.094;4.328;2023-03-05T06:01:17;3.65;;;0.80;;
54865;SDS011;40754;52.094;4.328;2023-03-05T06:03:45;9.75;;;1.10;;
54865;SDS011;40754;52.094;4.328;2023-03-05T06:06:12;6.95;;;1.00;;
54865;SDS011;40754;52.094;4.328;2023-03-05T06:08:39;3.78;;;0.85;;
54865;SDS011;40754;52.094;4.328;2023-03-05T06:11:05;2.97;;;0.85;;
54865;SDS011;40754;52.094;4.328;2023-03-05T06:13:30;4.53;;;1.00;;
54865;SDS011;40754;52.094;4.328;2023-03-05T06:16:00;3.50;;;0.70;;
54865;SDS011;40754;52.094;4.328;2023-03-05T06:18:33;5.18;;;0.93;;
54865;SDS011;40754;52.094;4.328;2023-03-05T06:21:00;5.13;;;0.80;;
54865;SDS011;40754;52.094;4.328;2023-03-05T06:23:30;2.55;;;0.80;;
54865;SDS011;40754;52.094;4.328;2023-03-05T06:25:57;4.78;;;0.80;;
54865;SDS011;40754;52.094;4.328;2023-03-05T06:28:24;5.47;;;0.68;;
54865;SDS011;40754;52.094;4.328;2023-03-05T06:30:49;2.70;;;0.68;;
54865;SDS011;40754;52.094;4.328;2023-03-05T06:33:15;2.75;;;0.80;;
54865;SDS011;40754;52.094;4.328;2023-03-05T06:35:41;5.43;;;0.70;;
54865;SDS011;40754;52.094;4.328;2023-03-05T06:38:07;6.25;;;0.77;;
54865;SDS011;40754;52.094;4.328;2023-03-05T06:40:33;6.97;;;1.15;;
54865;SDS011;40754;52.094;4.328;2023-03-05T06:42:59;7.10;;;1.08;;
54865;SDS011;40754;52.094;4.328;2023-03-05T06:45:25;3.72;;;0.75;;
54865;SDS011;40754;52.094;4.328;2023-03-05T06:47:50;7.82;;;1.08;;
54865;SDS011;40754;52.094;4.328;2023-03-05T06:50:16;6.50;;;1.10;;
54865;SDS011;40754;52.094;4.328;2023-03-05T06:52:42;8.40;;;1.25;;
54865;SDS011;40754;52.094;4.328;2023-03-05T06:55:08;6.57;;;1.10;;
54865;SDS011;40754;52.094;4.328;2023-03-05T06:57:37;4.38;;;0.80;;
54865;SDS011;40754;52.094;4.328;2023-03-05T07:00:09;6.00;;;1.27;;
54865;SDS011;40754;52.094;4.328;2023-03-05T07:02:41;8.73;;;1.35;;
54865;SDS011;40754;52.094;4.328;2023-03-05T07:05:15;8.18;;;1.10;;
54865;SDS011;40754;52.094;4.328;2023-03-05T07:07:41;3.97;;;0.90;;
54865;SDS011;40754;52.094;4.328;2023-03-05T07:10:14;9.27;;;0.93;;
54865;SDS011;40754;52.094;4.328;2023-03-05T07:12:43;3.55;;;0.50;;
54865;SDS011;40754;52.094;4.328;2023-03-05T07:15:09;5.53;;;1.38;;
54865;SDS011;40754;52.094;4.328;2023-03-05T07:17:44;2.42;;;0.60;;
54865;SDS011;40754;52.094;4.328;2023-03-05T07:20:12;2.47;;;0.65;;
54865;SDS011;40754;52.094;4.328;2023-03-05T07:22:49;10.48;;;1.27;;
54865;SDS011;40754;52.094;4.328;2023-03-05T07:25:26;5.18;;;1.05;;
54865;SDS011;40754;52.094;4.328;2023-03-05T07:27:59;4.68;;;0.98;;
54865;SDS011;40754;52.094;4.328;2023-03-05T07:30:25;4.82;;;1.17;;
54865;SDS011;40754;52.094;4.328;2023-03-05T07:32:51;6.40;;;0.82;;
54865;SDS011;40754;52.094;4.328;2023-03-05T07:35:16;5.85;;;0.80;;
54865;SDS011;40754;52.094;4.328;2023-03-05T07:37:42;3.60;;;1.20;;
54865;SDS011;40754;52.094;4.328;2023-03-05T07:40:11;8.90;;;0.98;;
54865;SDS011;40754;52.094;4.328;2023-03-05T07:42:37;3.92;;;0.90;;
54865;SDS011;40754;52.094;4.328;2023-03-05T07:45:02;3.90;;;0.95;;
54865;SDS011;40754;52.094;4.328;2023-03-05T07:47:40;6.43;;;1.20;;
54865;SDS011;40754;52.094;4.328;2023-03-05T07:50:05;8.07;;;1.23;;
54865;SDS011;40754;52.094;4.328;2023-03-05T07:52:34;6.45;;;1.40;;
54865;SDS011;40754;52.094;4.328;2023-03-05T07:55:00;8.93;;;1.55;;
54865;SDS011;40754;52.094;4.328;2023-03-05T07:57:26;6.22;;;1.20;;
54865;SDS011;40754;52.094;4.328;2023-03-05T07:59:54;6.13;;;1.00;;
54865;SDS011;40754;52.094;4.328;2023-03-05T08:02:22;3.58;;;1.63;;
54865;SDS011;40754;52.094;4.328;2023-03-05T08:04:48;8.70;;;1.30;;
54865;SDS011;40754;52.094;4.328;2023-03-05T08:07:17;3.97;;;0.90;;
54865;SDS011;40754;52.094;4.328;2023-03-05T08:09:45;6.72;;;1.52;;
54865;SDS011;40754;52.094;4.328;2023-03-05T08:12:11;8.32;;;1.20;;
54865;SDS011;40754;52.094;4.328;2023-03-05T08:14:37;6.68;;;0.90;;
54865;SDS011;40754;52.094;4.328;2023-03-05T08:17:05;5.20;;;0.88;;
54865;SDS011;40754;52.094;4.328;2023-03-05T08:19:34;6.57;;;1.35;;
54865;SDS011;40754;52.094;4.328;2023-03-05T08:22:05;6.47;;;0.93;;
54865;SDS011;40754;52.094;4.328;2023-03-05T08:24:34;5.47;;;1.13;;
54865;SDS011;40754;52.094;4.328;2023-03-05T08:27:03;2.90;;;0.70;;
54865;SDS011;40754;52.094;4.328;2023-03-05T08:29:40;2.92;;;1.10;;
54865;SDS011;40754;52.094;4.328;2023-03-05T08:32:09;6.93;;;1.35;;
54865;SDS011;40754;52.094;4.328;2023-03-05T08:34:34;3.08;;;0.40;;
54865;SDS011;40754;52.094;4.328;2023-03-05T08:37:00;3.60;;;0.50;;
54865;SDS011;40754;52.094;4.328;2023-03-05T08:39:26;4.63;;;1.00;;
54865;SDS011;40754;52.094;4.328;2023-03-05T08:41:54;9.30;;;0.70;;
54865;SDS011;40754;52.094;4.328;2023-03-05T08:44:20;3.00;;;0.40;;
54865;SDS011;40754;52.094;4.328;2023-03-05T08:46:54;5.28;;;1.02;;
54865;SDS011;40754;52.094;4.328;2023-03-05T08:49:42;6.20;;;0.90;;
54865;SDS011;40754;52.094;4.328;2023-03-05T08:52:07;4.43;;;0.70;;
54865;SDS011;40754;52.094;4.328;2023-03-05T08:54:33;3.00;;;0.80;;
54865;SDS011;40754;52.094;4.328;2023-03-05T08:56:58;1.73;;;0.60;;
54865;SDS011;40754;52.094;4.328;2023-03-05T08:59:24;8.25;;;0.90;;
54865;SDS011;40754;52.094;4.328;2023-03-05T09:01:49;3.85;;;0.75;;
54865;SDS011;40754;52.094;4.328;2023-03-05T09:04:15;4.65;;;1.23;;
54865;SDS011;40754;52.094;4.328;2023-03-05T09:07:01;9.95;;;1.17;;
54865;SDS011;40754;52.094;4.328;2023-03-05T09:09:27;3.95;;;1.05;;
54865;SDS011;40754;52.094;4.328;2023-03-05T09:11:54;3.97;;;0.95;;
54865;SDS011;40754;52.094;4.328;2023-03-05T09:14:22;8.85;;;1.08;;
54865;SDS011;40754;52.094;4.328;2023-03-05T09:16:48;6.30;;;1.25;;
54865;SDS011;40754;52.094;4.328;2023-03-05T09:19:22;6.05;;;2.10;;
54865;SDS011;40754;52.094;4.328;2023-03-05T09:21:48;6.50;;;1.15;;
54865;SDS011;40754;52.094;4.328;2023-03-05T09:24:19;2.92;;;0.75;;
54865;SDS011;40754;52.094;4.328;2023-03-05T09:26:50;5.07;;;0.65;;
54865;SDS011;40754;52.094;4.328;2023-03-05T09:29:19;3.30;;;1.20;;
54865;SDS011;40754;52.094;4.328;2023-03-05T09:32:01;5.13;;;0.50;;
54865;SDS011;40754;52.094;4.328;2023-03-05T09:34:27;5.55;;;1.02;;
54865;SDS011;40754;52.094;4.328;2023-03-05T09:37:14;3.40;;;0.70;;
54865;SDS011;40754;52.094;4.328;2023-03-05T09:39:45;3.75;;;1.45;;
54865;SDS011;40754;52.094;4.328;2023-03-05T09:51:28;3.47;;;0.95;;
54865;SDS011;40754;52.094;4.328;2023-03-05T09:54:22;1.70;;;0.57;;
54865;SDS011;40754;52.094;4.328;2023-03-05T09:56:50;7.68;;;1.02;;
54865;SDS011;40754;52.094;4.328;2023-03-05T09:59:28;7.60;;;1.20;;
54865;SDS011;40754;52.094;4.328;2023-03-05T10:01:57;7.43;;;0.93;;
54865;SDS011;40754;52.094;4.328;2023-03-05T10:04:24;6.47;;;0.77;;
54865;SDS011;40754;52.094;4.328;2023-03-05T10:06:55;1.42;;;0.60;;
54865;SDS011;40754;52.094;4.328;2023-03-05T10:09:42;0.90;;;0.40;;
54865;SDS011;40754;52.094;4.328;2023-03-05T10:12:40;7.20;;;0.77;;
54865;SDS011;40754;52.094;4.328;2023-03-05T10:15:19;11.25;;;0.85;;
54865;SDS011;40754;52.094;4.328;2023-03-05T10:31:49;2.47;;;0.70;;
54865;SDS011;40754;52.094;4.328;2023-03-05T10:42:53;3.50;;;0.70;;
54865;SDS011;40754;52.094;4.328;2023-03-05T10:45:41;7.05;;;1.00;;
54865;SDS011;40754;52.094;4.328;2023-03-05T10:54:03;4.13;;;0.80;;
54865;SDS011;40754;52.094;4.328;2023-03-05T10:56:39;2.45;;;0.88;;
54865;SDS011;40754;52.094;4.328;2023-03-05T10:59:05;5.82;;;0.63;;
54865;SDS011;40754;52.094;4.328;2023-03-05T11:01:34;4.78;;;0.73;;
54865;SDS011;40754;52.094;4.328;2023-03-05T11:04:06;5.80;;;0.82;;
54865;SDS011;40754;52.094;4.328;2023-03-05T11:06:38;4.93;;;0.82;;
54865;SDS011;40754;52.094;4.328;2023-03-05T11:09:16;2.88;;;0.50;;
54865;SDS011;40754;52.094;4.328;2023-03-05T11:11:44;4.07;;;0.90;;
54865;SDS011;40754;52.094;4.328;2023-03-05T11:14:28;3.28;;;0.40;;
54865;SDS011;40754;52.094;4.328;2023-03-05T11:16:57;1.08;;;0.57;;
54865;SDS011;40754;52.094;4.328;2023-03-05T11:19:27;3.78;;;0.90;;
54865;SDS011;40754;52.094;4.328;2023-03-05T11:27:36;3.17;;;0.60;;
54865;SDS011;40754;52.094;4.328;2023-03-05T11:30:05;2.03;;;0.68;;
54865;SDS011;40754;52.094;4.328;2023-03-05T11:32:43;0.98;;;0.55;;
54865;SDS011;40754;52.094;4.328;2023-03-05T11:35:29;4.07;;;1.02;;
54865;SDS011;40754;52.094;4.328;2023-03-05T11:38:21;4.00;;;0.95;;
54865;SDS011;40754;52.094;4.328;2023-03-05T11:40:52;3.95;;;0.68;;
54865;SDS011;40754;52.094;4.328;2023-03-05T11:43:20;3.63;;;0.75;;
54865;SDS011;40754;52.094;4.328;2023-03-05T11:45:58;3.72;;;0.63;;
54865;SDS011;40754;52.094;4.328;2023-03-05T11:48:31;4.20;;;0.40;;
54865;SDS011;40754;52.094;4.328;2023-03-05T11:51:12;2.03;;;0.43;;
54865;SDS011;40754;52.094;4.328;2023-03-05T11:53:42;3.40;;;0.85;;
54865;SDS011;40754;52.094;4.328;2023-03-05T12:01:51;3.03;;;0.50;;
54865;SDS011;40754;52.094;4.328;2023-03-05T12:04:24;2.90;;;0.80;;
54865;SDS011;40754;52.094;4.328;2023-03-05T12:06:53;3.97;;;1.52;;
54865;SDS011;40754;52.094;4.328;2023-03-05T12:17:53;2.30;;;0.60;;
54865;SDS011;40754;52.094;4.328;2023-03-05T12:23:14;3.10;;;0.90;;
54865;SDS011;40754;52.094;4.328;2023-03-05T12:28:15;4.18;;;0.70;;
54865;SDS011;40754;52.094;4.328;2023-03-05T12:33:35;4.22;;;1.02;;
54865;SDS011;40754;52.094;4.328;2023-03-05T12:38:42;2.67;;;0.80;;
54865;SDS011;40754;52.094;4.328;2023-03-05T12:56:04;4.40;;;1.13;;
54865;SDS011;40754;52.094;4.328;2023-03-05T12:58:51;1.30;;;0.40;;
54865;SDS011;40754;52.094;4.328;2023-03-05T13:04:05;4.85;;;0.90;;
54865;SDS011;40754;52.094;4.328;2023-03-05T13:06:38;1.58;;;0.60;;
54865;SDS011;40754;52.094;4.328;2023-03-05T13:12:12;2.28;;;0.50;;
54865;SDS011;40754;52.094;4.328;2023-03-05T13:14:41;3.35;;;0.70;;
54865;SDS011;40754;52.094;4.328;2023-03-05T13:19:53;4.15;;;0.77;;
54865;SDS011;40754;52.094;4.328;2023-03-05T13:22:22;4.90;;;1.20;;
54865;SDS011;40754;52.094;4.328;2023-03-05T13:25:34;5.85;;;1.08;;
54865;SDS011;40754;52.094;4.328;2023-03-05T13:27:44;3.22;;;0.68;;
54865;SDS011;40754;52.094;4.328;2023-03-05T13:30:20;8.23;;;1.35;;
54865;SDS011;40754;52.094;4.328;2023-03-05T13:32:51;3.83;;;0.73;;
54865;SDS011;40754;52.094;4.328;2023-03-05T13:35:22;3.22;;;0.60;;
54865;SDS011;40754;52.094;4.328;2023-03-05T13:37:48;5.03;;;0.90;;
54865;SDS011;40754;52.094;4.328;2023-03-05T13:43:07;2.45;;;0.82;;
54865;SDS011;40754;52.094;4.328;2023-03-05T13:45:40;6.35;;;0.82;;
54865;SDS011;40754;52.094;4.328;2023-03-05T13:51:13;3.95;;;0.80;;
54865;SDS011;40754;52.094;4.328;2023-03-05T13:53:50;5.70;;;0.80;;
54865;SDS011;40754;52.094;4.328;2023-03-05T13:57:20;4.63;;;0.93;;
54865;SDS011;40754;52.094;4.328;2023-03-05T14:03:40;1.60;;;0.57;;
54865;SDS011;40754;52.094;4.328;2023-03-05T14:06:24;1.33;;;0.65;;
54865;SDS011;40754;52.094;4.328;2023-03-05T14:18:36;6.40;;;0.98;;
54865;SDS011;40754;52.094;4.328;2023-03-05T14:24:51;2.63;;;0.63;;
54865;SDS011;40754;52.094;4.328;2023-03-05T14:27:39;4.03;;;0.60;;
54865;SDS011;40754;52.094;4.328;2023-03-05T14:30:14;4.35;;;0.70;;
54865;SDS011;40754;52.094;4.328;2023-03-05T14:33:00;1.35;;;0.70;;
54865;SDS011;40754;52.094;4.328;2023-03-05T14:38:29;4.63;;;0.90;;
54865;SDS011;40754;52.094;4.328;2023-03-05T14:44:13;6.75;;;0.90;;
54865;SDS011;40754;52.094;4.328;2023-03-05T14:46:59;3.20;;;0.70;;
54865;SDS011;40754;52.094;4.328;2023-03-05T14:49:31;9.85;;;1.40;;
54865;SDS011;40754;52.094;4.328;2023-03-05T14:52:03;12.00;;;0.80;;
54865;SDS011;40754;52.094;4.328;2023-03-05T14:54:42;3.97;;;0.65;;
54865;SDS011;40754;52.094;4.328;2023-03-05T14:57:11;1.95;;;0.40;;
54865;SDS011;40754;52.094;4.328;2023-03-05T14:59:44;3.78;;;0.60;;
54865;SDS011;40754;52.094;4.328;2023-03-05T15:02:18;2.65;;;0.80;;
54865;SDS011;40754;52.094;4.328;2023-03-05T15:04:49;5.35;;;1.95;;
54865;SDS011;40754;52.094;4.328;2023-03-05T15:07:35;5.55;;;1.17;;
54865;SDS011;40754;52.094;4.328;2023-03-05T15:10:15;4.30;;;0.73;;
54865;SDS011;40754;52.094;4.328;2023-03-05T15:12:43;6.95;;;0.82;;
54865;SDS011;40754;52.094;4.328;2023-03-05T15:15:17;1.90;;;0.82;;
54865;SDS011;40754;52.094;4.328;2023-03-05T15:18:08;2.55;;;0.90;;
54865;SDS011;40754;52.094;4.328;2023-03-05T15:20:51;2.30;;;0.60;;
54865;SDS011;40754;52.094;4.328;2023-03-05T15:26:22;1.27;;;0.73;;
54865;SDS011;40754;52.094;4.328;2023-03-05T15:28:51;2.85;;;0.85;;
54865;SDS011;40754;52.094;4.328;2023-03-05T15:31:17;1.40;;;0.60;;
54865;SDS011;40754;52.094;4.328;2023-03-05T15:33:44;3.25;;;1.00;;
54865;SDS011;40754;52.094;4.328;2023-03-05T15:36:18;2.53;;;0.82;;
54865;SDS011;40754;52.094;4.328;2023-03-05T15:38:47;3.42;;;0.93;;
54865;SDS011;40754;52.094;4.328;2023-03-05T15:41:18;2.47;;;1.10;;
54865;SDS011;40754;52.094;4.328;2023-03-05T15:43:56;2.88;;;0.93;;
54865;SDS011;40754;52.094;4.328;2023-03-05T15:46:29;1.95;;;1.00;;
54865;SDS011;40754;52.094;4.328;2023-03-05T15:49:02;3.78;;;0.80;;
54865;SDS011;40754;52.094;4.328;2023-03-05T15:51:33;3.78;;;1.20;;
54865;SDS011;40754;52.094;4.328;2023-03-05T15:54:02;1.60;;;0.60;;
54865;SDS011;40754;52.094;4.328;2023-03-05T15:56:34;4.55;;;1.00;;
54865;SDS011;40754;52.094;4.328;2023-03-05T15:59:09;3.47;;;1.25;;
54865;SDS011;40754;52.094;4.328;2023-03-05T16:01:44;2.08;;;0.85;;
54865;SDS011;40754;52.094;4.328;2023-03-05T16:04:21;5.47;;;2.00;;
54865;SDS011;40754;52.094;4.328;2023-03-05T16:06:56;5.75;;;1.10;;
54865;SDS011;40754;52.094;4.328;2023-03-05T16:09:29;3.78;;;1.30;;
54865;SDS011;40754;52.094;4.328;2023-03-05T16:12:02;5.40;;;1.30;;
54865;SDS011;40754;52.094;4.328;2023-03-05T16:17:24;2.50;;;1.15;;
54865;SDS011;40754;52.094;4.328;2023-03-05T16:19:51;4.47;;;2.30;;
54865;SDS011;40754;52.094;4.328;2023-03-05T16:25:16;3.92;;;1.40;;
54865;SDS011;40754;52.094;4.328;2023-03-05T16:27:51;2.20;;;1.20;;
54865;SDS011;40754;52.094;4.328;2023-03-05T16:30:22;2.95;;;1.70;;
54865;SDS011;40754;52.094;4.328;2023-03-05T16:32:51;2.85;;;1.60;;
54865;SDS011;40754;52.094;4.328;2023-03-05T16:35:20;4.13;;;2.00;;
54865;SDS011;40754;52.094;4.328;2023-03-05T16:37:48;2.88;;;2.20;;
54865;SDS011;40754;52.094;4.328;2023-03-05T16:40:18;5.13;;;2.20;;
54865;SDS011;40754;52.094;4.328;2023-03-05T16:42:54;7.10;;;2.80;;
54865;SDS011;40754;52.094;4.328;2023-03-05T16:45:22;4.35;;;2.60;;
54865;SDS011;40754;52.094;4.328;2023-03-05T16:47:48;6.38;;;3.28;;
54865;SDS011;40754;52.094;4.328;2023-03-05T16:50:23;7.57;;;3.30;;
54865;SDS011;40754;52.094;4.328;2023-03-05T16:52:59;6.90;;;3.15;;
54865;SDS011;40754;52.094;4.328;2023-03-05T16:55:27;3.60;;;2.35;;
54865;SDS011;40754;52.094;4.328;2023-03-05T16:57:56;4.70;;;1.83;;
54865;SDS011;40754;52.094;4.328;2023-03-05T17:00:28;4.72;;;2.55;;
54865;SDS011;40754;52.094;4.328;2023-03-05T17:02:53;5.95;;;2.22;;
54865;SDS011;40754;52.094;4.328;2023-03-05T17:05:23;5.22;;;1.70;;
54865;SDS011;40754;52.094;4.328;2023-03-05T17:07:52;7.00;;;2.00;;
54865;SDS011;40754;52.094;4.328;2023-03-05T17:10:18;3.72;;;1.83;;
54865;SDS011;40754;52.094;4.328;2023-03-05T17:12:43;2.78;;;1.67;;
54865;SDS011;40754;52.094;4.328;2023-03-05T17:15:11;3.53;;;1.73;;
54865;SDS011;40754;52.094;4.328;2023-03-05T17:17:38;6.72;;;2.20;;
54865;SDS011;40754;52.094;4.328;2023-03-05T17:20:04;4.07;;;2.25;;